createdAt,value
2023-03-29T00:00:52.279Z,4.64
2023-03-29T00:01:52.336Z,4.61
2023-03-29T00:02:52.350Z,4.59
2023-03-29T00:03:52.316Z,4.70
2023-03-29T00:04:52.233Z,4.70
2023-03-29T00:05:52.223Z,4.65
2023-03-29T00:06:52.229Z,4.75
2023-03-29T00:07:52.213Z,4.65
2023-03-29T00:08:52.192Z,4.73
2023-03-29T00:09:52.177Z,4.72
2023-03-29T00:10:52.174Z,4.64
2023-03-29T00:11:52.161Z,4.65
2023-03-29T00:12:52.169Z,4.69
2023-03-29T00:13:52.136Z,4.76
2023-03-29T00:14:52.125Z,4.73
2023-03-29T00:15:52.122Z,4.75
2023-03-29T00:16:52.196Z,4.69
2023-03-29T00:17:52.125Z,4.59
2023-03-29T00:18:52.090Z,4.65
2023-03-29T00:19:52.072Z,4.73
2023-03-29T00:20:52.068Z,4.65
2023-03-29T00:21:52.047Z,4.62
2023-03-29T00:22:52.056Z,4.61
2023-03-29T00:23:52.035Z,4.52
2023-03-29T00:24:52.020Z,4.52
2023-03-29T00:25:52.006Z,4.58
2023-03-29T00:26:51.999Z,4.59
2023-03-29T00:27:51.995Z,4.58
2023-03-29T00:28:51.978Z,4.55
2023-03-29T00:29:51.968Z,4.54
2023-03-29T00:30:51.955Z,4.51
2023-03-29T00:31:52.086Z,4.54
2023-03-29T00:32:52.012Z,4.58
2023-03-29T00:33:51.924Z,4.54
2023-03-29T00:34:51.921Z,4.62
2023-03-29T00:35:51.915Z,4.62
2023-03-29T00:36:51.893Z,4.50
2023-03-29T00:37:51.886Z,4.58
2023-03-29T00:38:51.876Z,4.62
2023-03-29T00:39:51.862Z,4.62
2023-03-29T00:40:51.846Z,4.55
2023-03-29T00:41:51.842Z,4.67
2023-03-29T00:42:51.843Z,4.61
2023-03-29T00:43:51.818Z,4.67
2023-03-29T00:44:51.805Z,4.57
2023-03-29T00:45:51.794Z,4.58
2023-03-29T00:46:51.831Z,4.61
2023-03-29T00:47:51.804Z,4.59
2023-03-29T00:48:51.770Z,4.61
2023-03-29T00:49:51.752Z,4.69
2023-03-29T00:50:51.757Z,4.62
2023-03-29T00:51:51.733Z,4.64
2023-03-29T00:52:51.744Z,4.59
2023-03-29T00:53:51.709Z,4.57
2023-03-29T00:54:51.703Z,4.59
2023-03-29T00:55:51.693Z,4.65
2023-03-29T00:56:51.717Z,4.76
2023-03-29T00:57:51.678Z,4.65
2023-03-29T00:58:51.661Z,4.69
2023-03-29T00:59:51.645Z,4.65
2023-03-29T01:00:51.646Z,4.70
2023-03-29T01:01:51.654Z,4.62
2023-03-29T01:02:51.744Z,4.70
2023-03-29T01:03:51.684Z,4.70
2023-03-29T01:04:51.603Z,4.65
2023-03-29T01:05:52.733Z,4.61
2023-03-29T01:06:52.725Z,4.55
2023-03-29T01:07:52.721Z,4.52
2023-03-29T01:08:52.686Z,4.44
2023-03-29T01:09:52.668Z,4.42
2023-03-29T01:10:52.666Z,4.39
2023-03-29T01:11:52.650Z,4.36
2023-03-29T01:12:52.684Z,4.29
2023-03-29T01:13:52.629Z,4.26
2023-03-29T01:14:52.619Z,4.25
2023-03-29T01:15:52.613Z,4.29
2023-03-29T01:16:52.652Z,4.32
2023-03-29T01:17:52.658Z,4.19
2023-03-29T01:18:52.585Z,4.24
2023-03-29T01:19:52.573Z,4.29
2023-03-29T01:20:52.577Z,4.28
2023-03-29T01:21:52.564Z,4.28
2023-03-29T01:22:52.583Z,4.26
2023-03-29T01:23:52.550Z,4.26
2023-03-29T01:24:52.575Z,4.32
2023-03-29T01:25:52.519Z,4.28
2023-03-29T01:26:52.505Z,4.37
2023-03-29T01:27:52.515Z,4.34
2023-03-29T01:28:52.489Z,4.36
2023-03-29T01:29:52.477Z,4.32
2023-03-29T01:30:52.479Z,4.26
2023-03-29T01:31:52.511Z,4.28
2023-03-29T01:32:52.510Z,4.28
2023-03-29T01:33:52.446Z,4.34
2023-03-29T01:34:52.420Z,4.32
2023-03-29T01:35:52.483Z,4.46
2023-03-29T01:36:52.416Z,4.43
2023-03-29T01:37:52.409Z,4.42
2023-03-29T01:38:52.391Z,4.43
2023-03-29T01:39:52.414Z,4.39
2023-03-29T01:40:52.394Z,4.47
2023-03-29T01:41:52.376Z,4.52
2023-03-29T01:42:52.348Z,4.58
2023-03-29T01:43:52.342Z,4.57
2023-03-29T01:44:52.322Z,4.61
2023-03-29T01:45:52.336Z,4.55
2023-03-29T01:46:52.307Z,4.52
2023-03-29T01:47:52.305Z,4.70
2023-03-29T01:48:52.301Z,4.65
2023-03-29T01:49:52.278Z,4.52
2023-03-29T01:50:52.261Z,4.65
2023-03-29T01:51:52.298Z,4.70
2023-03-29T01:52:52.245Z,4.58
2023-03-29T01:53:52.247Z,4.72
2023-03-29T01:54:52.214Z,4.72
2023-03-29T01:55:52.206Z,4.69
2023-03-29T01:56:52.237Z,4.70
2023-03-29T01:57:52.190Z,4.70
2023-03-29T01:58:52.193Z,4.79
2023-03-29T01:59:52.165Z,4.75
2023-03-29T02:00:52.159Z,4.70
2023-03-29T02:01:52.244Z,4.70
2023-03-29T02:02:52.241Z,4.79
2023-03-29T02:03:52.136Z,4.75
2023-03-29T02:04:52.117Z,4.75
2023-03-29T02:05:52.108Z,4.62
2023-03-29T02:06:52.102Z,4.75
2023-03-29T02:07:52.086Z,4.73
2023-03-29T02:08:52.097Z,4.73
2023-03-29T02:09:52.076Z,4.76
2023-03-29T02:10:52.053Z,4.70
2023-03-29T02:11:52.053Z,4.73
2023-03-29T02:12:52.050Z,4.73
2023-03-29T02:13:52.041Z,4.67
2023-03-29T02:14:52.022Z,4.72
2023-03-29T02:15:52.047Z,4.69
2023-03-29T02:16:51.991Z,4.65
2023-03-29T02:17:52.003Z,4.73
2023-03-29T02:18:51.989Z,4.73
2023-03-29T02:19:51.976Z,4.70
2023-03-29T02:20:51.950Z,4.67
2023-03-29T02:21:51.946Z,4.76
2023-03-29T02:22:51.949Z,4.65
2023-03-29T02:23:51.935Z,4.70
2023-03-29T02:24:51.918Z,4.65
2023-03-29T02:25:51.907Z,4.69
2023-03-29T02:26:51.893Z,4.69
2023-03-29T02:27:51.902Z,4.69
2023-03-29T02:28:51.895Z,4.69
2023-03-29T02:29:51.861Z,4.79
2023-03-29T02:30:51.880Z,4.73
2023-03-29T02:31:51.860Z,4.67
2023-03-29T02:32:51.867Z,4.65
2023-03-29T02:33:51.842Z,4.73
2023-03-29T02:34:51.816Z,4.73
2023-03-29T02:35:51.827Z,4.67
2023-03-29T02:36:51.796Z,4.61
2023-03-29T02:37:51.800Z,4.58
2023-03-29T02:38:51.788Z,4.70
2023-03-29T02:39:51.758Z,4.67
2023-03-29T02:40:51.753Z,4.72
2023-03-29T02:41:51.742Z,4.62
2023-03-29T02:42:51.722Z,4.69
2023-03-29T02:43:51.731Z,4.64
2023-03-29T02:44:51.714Z,4.67
2023-03-29T02:45:51.711Z,4.67
2023-03-29T02:46:51.716Z,4.61
2023-03-29T02:47:51.793Z,4.67
2023-03-29T02:48:51.678Z,4.72
2023-03-29T02:49:51.659Z,4.72
2023-03-29T02:50:51.660Z,4.72
2023-03-29T02:51:51.652Z,4.72
2023-03-29T02:52:51.633Z,4.65
2023-03-29T02:53:51.639Z,4.73
2023-03-29T02:54:51.608Z,4.73
2023-03-29T02:55:51.600Z,4.76
2023-03-29T02:56:51.608Z,4.69
2023-03-29T02:57:51.585Z,4.62
2023-03-29T02:58:51.595Z,4.62
2023-03-29T02:59:51.557Z,4.67
2023-03-29T03:00:51.558Z,4.67
2023-03-29T03:01:51.583Z,4.72
2023-03-29T03:02:51.587Z,4.72
2023-03-29T03:03:51.589Z,4.64
2023-03-29T03:04:51.520Z,4.57
2023-03-29T03:05:51.502Z,4.72
2023-03-29T03:06:51.486Z,4.70
2023-03-29T03:07:51.487Z,4.73
2023-03-29T03:08:51.476Z,4.70
2023-03-29T03:09:51.482Z,4.72
2023-03-29T03:10:51.449Z,4.67
2023-03-29T03:11:51.442Z,4.59
2023-03-29T03:12:51.443Z,4.58
2023-03-29T03:13:51.424Z,4.65
2023-03-29T03:14:51.426Z,4.72
2023-03-29T03:15:51.455Z,4.69
2023-03-29T03:16:51.392Z,4.59
2023-03-29T03:17:51.396Z,4.65
2023-03-29T03:18:51.387Z,4.65
2023-03-29T03:19:51.373Z,4.72
2023-03-29T03:20:51.352Z,4.62
2023-03-29T03:21:51.344Z,4.77
2023-03-29T03:22:51.333Z,4.52
2023-03-29T03:23:51.314Z,4.59
2023-03-29T03:24:51.324Z,4.65
2023-03-29T03:25:51.305Z,4.61
2023-03-29T03:26:51.287Z,4.67
2023-03-29T03:27:51.277Z,4.61
2023-03-29T03:28:51.272Z,4.64
2023-03-29T03:29:51.265Z,4.69
2023-03-29T03:30:51.258Z,4.70
2023-03-29T03:31:53.808Z,4.73
2023-03-29T03:32:51.281Z,4.67
2023-03-29T03:33:51.225Z,4.69
2023-03-29T03:34:51.217Z,4.70
2023-03-29T03:35:51.221Z,4.70
2023-03-29T03:36:51.187Z,4.65
2023-03-29T03:37:51.189Z,4.79
2023-03-29T03:38:51.165Z,4.67
2023-03-29T03:39:51.163Z,4.59
2023-03-29T03:40:51.160Z,4.75
2023-03-29T03:41:51.134Z,4.67
2023-03-29T03:42:51.131Z,4.58
2023-03-29T03:43:51.116Z,4.59
2023-03-29T03:44:51.125Z,4.62
2023-03-29T03:45:51.179Z,4.75
2023-03-29T03:46:51.093Z,4.70
2023-03-29T03:47:51.087Z,4.65
2023-03-29T03:48:51.073Z,4.67
2023-03-29T03:49:51.076Z,4.62
2023-03-29T03:50:51.052Z,4.51
2023-03-29T03:51:52.257Z,4.47
2023-03-29T03:52:52.035Z,4.61
2023-03-29T03:53:51.022Z,4.59
2023-03-29T03:54:51.014Z,4.52
2023-03-29T03:55:50.992Z,4.57
2023-03-29T03:56:51.102Z,4.54
2023-03-29T03:57:50.973Z,4.46
2023-03-29T03:58:50.970Z,4.51
2023-03-29T03:59:50.971Z,4.44
2023-03-29T04:00:50.957Z,4.47
2023-03-29T04:01:50.936Z,4.47
2023-03-29T04:02:51.013Z,4.54
2023-03-29T04:03:50.985Z,4.57
2023-03-29T04:04:50.920Z,4.57
2023-03-29T04:05:50.890Z,4.64
2023-03-29T04:06:50.903Z,4.67
2023-03-29T04:07:50.879Z,4.65
2023-03-29T04:08:50.877Z,4.65
2023-03-29T04:09:50.867Z,4.69
2023-03-29T04:10:50.841Z,4.73
2023-03-29T04:11:50.834Z,4.61
2023-03-29T04:12:50.817Z,4.55
2023-03-29T04:13:50.814Z,4.55
2023-03-29T04:14:50.815Z,4.55
2023-03-29T04:15:50.835Z,4.72
2023-03-29T04:16:50.784Z,4.64
2023-03-29T04:17:50.885Z,4.65
2023-03-29T04:18:50.838Z,4.70
2023-03-29T04:19:50.762Z,4.61
2023-03-29T04:20:50.752Z,4.64
2023-03-29T04:21:50.732Z,4.64
2023-03-29T04:22:50.725Z,4.61
2023-03-29T04:23:50.715Z,4.73
2023-03-29T04:24:50.717Z,4.64
2023-03-29T04:25:50.710Z,4.67
2023-03-29T04:26:50.682Z,4.67
2023-03-29T04:27:50.676Z,4.59
2023-03-29T04:28:50.665Z,4.70
2023-03-29T04:29:50.674Z,4.61
2023-03-29T04:30:50.651Z,4.65
2023-03-29T04:31:51.659Z,4.57
2023-03-29T04:32:50.663Z,4.51
2023-03-29T04:33:50.611Z,4.51
2023-03-29T04:34:50.620Z,4.61
2023-03-29T04:35:50.701Z,4.62
2023-03-29T04:36:50.592Z,4.54
2023-03-29T04:37:50.585Z,4.57
2023-03-29T04:38:50.576Z,4.59
2023-03-29T04:39:50.579Z,4.51
2023-03-29T04:40:50.548Z,4.59
2023-03-29T04:41:50.541Z,4.51
2023-03-29T04:42:50.525Z,4.55
2023-03-29T04:43:50.526Z,4.65
2023-03-29T04:44:50.573Z,4.55
2023-03-29T04:45:50.506Z,4.64
2023-03-29T04:46:50.530Z,4.70
2023-03-29T04:47:50.495Z,4.70
2023-03-29T04:48:50.480Z,4.69
2023-03-29T04:49:50.453Z,4.58
2023-03-29T04:50:50.458Z,4.65
2023-03-29T04:51:50.435Z,4.65
2023-03-29T04:52:50.443Z,4.61
2023-03-29T04:53:50.460Z,4.75
2023-03-29T04:54:50.406Z,4.69
2023-03-29T04:55:50.410Z,4.64
2023-03-29T04:56:50.401Z,4.67
2023-03-29T04:57:50.381Z,4.58
2023-03-29T04:58:50.371Z,4.55
2023-03-29T04:59:50.363Z,4.62
2023-03-29T05:00:50.365Z,4.70
2023-03-29T05:01:50.377Z,4.61
2023-03-29T05:02:50.351Z,4.70
2023-03-29T05:03:50.366Z,4.72
2023-03-29T05:04:50.319Z,4.62
2023-03-29T05:05:50.318Z,4.64
2023-03-29T05:06:50.295Z,4.70
2023-03-29T05:07:50.281Z,4.67
2023-03-29T05:08:50.284Z,4.62
2023-03-29T05:09:50.261Z,4.79
2023-03-29T05:10:50.246Z,4.67
2023-03-29T05:11:50.225Z,4.69
2023-03-29T05:12:50.218Z,4.72
2023-03-29T05:13:50.215Z,4.73
2023-03-29T05:14:50.199Z,4.75
2023-03-29T05:15:50.250Z,4.77
2023-03-29T05:16:50.198Z,4.72
2023-03-29T05:17:50.202Z,4.76
2023-03-29T05:18:50.182Z,4.72
2023-03-29T05:19:50.156Z,4.80
2023-03-29T05:20:50.180Z,4.84
2023-03-29T05:21:50.159Z,4.76
2023-03-29T05:22:50.122Z,4.67
2023-03-29T05:23:50.145Z,4.70
2023-03-29T05:24:50.109Z,4.69
2023-03-29T05:25:50.131Z,4.69
2023-03-29T05:26:50.099Z,4.65
2023-03-29T05:27:50.095Z,4.70
2023-03-29T05:28:50.093Z,4.64
2023-03-29T05:29:50.071Z,4.77
2023-03-29T05:30:50.056Z,4.84
2023-03-29T05:31:50.157Z,4.86
2023-03-29T05:32:50.083Z,4.84
2023-03-29T05:33:50.057Z,4.80
2023-03-29T05:34:50.066Z,4.76
2023-03-29T05:35:50.048Z,4.76
2023-03-29T05:36:50.015Z,4.75
2023-03-29T05:37:50.025Z,4.75
2023-03-29T05:38:50.063Z,4.76
2023-03-29T05:39:49.986Z,4.72
2023-03-29T05:40:50.003Z,4.80
2023-03-29T05:41:49.939Z,4.83
2023-03-29T05:42:49.940Z,4.86
2023-03-29T05:43:49.929Z,4.89
2023-03-29T05:44:51.092Z,5.02
2023-03-29T05:45:49.912Z,4.95
2023-03-29T05:46:49.896Z,5.07
2023-03-29T05:47:49.917Z,4.98
2023-03-29T05:48:49.856Z,5.10
2023-03-29T05:49:49.878Z,5.23
2023-03-29T05:50:49.869Z,5.17
2023-03-29T05:51:49.847Z,5.19
2023-03-29T05:52:49.815Z,5.27
2023-03-29T05:53:49.816Z,5.17
2023-03-29T05:54:49.807Z,5.16
2023-03-29T05:55:49.799Z,5.19
2023-03-29T05:56:49.830Z,5.37
2023-03-29T05:57:49.783Z,5.31
2023-03-29T05:58:49.765Z,5.34
2023-03-29T06:01:15.820Z,5.27
2023-03-29T06:02:15.922Z,5.31
2023-03-29T06:03:21.510Z,5.25
2023-03-29T06:04:16.835Z,5.40
2023-03-29T06:05:15.762Z,5.49
2023-03-29T06:06:15.769Z,5.70
2023-03-29T06:07:15.745Z,5.85
2023-03-29T06:08:15.744Z,5.89
2023-03-29T06:09:15.726Z,5.85
2023-03-29T06:10:15.716Z,5.85
2023-03-29T06:11:15.702Z,5.89
2023-03-29T06:12:15.693Z,5.88
2023-03-29T06:13:15.692Z,6.00
2023-03-29T06:14:15.671Z,5.93
2023-03-29T06:15:15.653Z,5.92
2023-03-29T06:16:15.676Z,6.00
2023-03-29T06:17:15.680Z,6.09
2023-03-29T06:18:15.625Z,6.25
2023-03-29T06:19:15.624Z,6.50
2023-03-29T06:20:15.607Z,6.51
2023-03-29T06:21:15.602Z,6.56
2023-03-29T06:22:15.610Z,6.68
2023-03-29T06:23:15.601Z,6.65
2023-03-29T06:24:15.581Z,6.71
2023-03-29T06:25:15.651Z,6.90
2023-03-29T06:26:15.563Z,7.12
2023-03-29T06:27:15.533Z,7.15
2023-03-29T06:28:15.526Z,7.27
2023-03-29T06:29:15.510Z,7.35
2023-03-29T06:30:15.547Z,7.37
2023-03-29T06:31:15.512Z,7.29
2023-03-29T06:32:15.483Z,7.23
2023-03-29T06:33:15.500Z,7.23
2023-03-29T06:34:15.463Z,6.98
2023-03-29T06:35:15.463Z,6.91
2023-03-29T06:36:15.499Z,6.95
2023-03-29T06:37:15.434Z,6.94
2023-03-29T06:38:15.424Z,6.84
2023-03-29T06:39:15.413Z,7.01
2023-03-29T06:40:15.407Z,7.09
2023-03-29T06:41:15.407Z,7.05
2023-03-29T06:42:21.139Z,7.08
2023-03-29T06:43:16.368Z,7.13
2023-03-29T06:44:15.361Z,7.07
2023-03-29T06:45:15.348Z,7.04
2023-03-29T06:46:15.378Z,7.01
2023-03-29T06:47:15.332Z,6.99
2023-03-29T06:48:15.322Z,7.04
2023-03-29T06:49:15.306Z,7.19
2023-03-29T06:50:15.300Z,7.27
2023-03-29T06:51:15.297Z,7.41
2023-03-29T06:52:15.276Z,7.40
2023-03-29T06:53:15.272Z,7.47
2023-03-29T06:54:15.258Z,7.53
2023-03-29T06:55:15.253Z,7.45
2023-03-29T06:56:15.249Z,7.35
2023-03-29T06:57:15.293Z,7.56
2023-03-29T06:58:15.214Z,7.47
2023-03-29T06:59:15.205Z,7.56
2023-03-29T07:00:15.528Z,7.52
2023-03-29T07:01:15.364Z,7.59
2023-03-29T07:02:15.222Z,7.53
2023-03-29T07:03:15.182Z,7.72
2023-03-29T07:04:15.193Z,7.60
2023-03-29T07:05:15.137Z,7.52
2023-03-29T07:06:15.139Z,7.50
2023-03-29T07:07:15.112Z,7.53
2023-03-29T07:08:15.122Z,7.63
2023-03-29T07:09:16.193Z,7.78
2023-03-29T07:10:15.098Z,7.75
2023-03-29T07:11:15.102Z,7.85
2023-03-29T07:12:15.059Z,8.00
2023-03-29T07:13:15.050Z,8.00
2023-03-29T07:14:15.299Z,8.08
2023-03-29T07:15:15.035Z,8.07
2023-03-29T07:16:15.120Z,8.21
2023-03-29T07:17:15.013Z,8.21
2023-03-29T07:18:15.024Z,8.35
2023-03-29T07:19:14.987Z,8.51
2023-03-29T07:20:14.977Z,8.54
2023-03-29T07:21:14.981Z,8.57
2023-03-29T07:22:14.957Z,8.58
2023-03-29T07:23:14.948Z,8.71
2023-03-29T07:24:14.935Z,8.66
2023-03-29T07:25:14.921Z,8.78
2023-03-29T07:26:14.928Z,8.68
2023-03-29T07:27:15.899Z,8.78
2023-03-29T07:28:14.929Z,8.48
2023-03-29T07:29:14.883Z,8.33
2023-03-29T07:30:14.891Z,8.25
2023-03-29T07:31:14.868Z,8.33
2023-03-29T07:32:14.865Z,8.18
2023-03-29T07:33:14.952Z,8.37
2023-03-29T07:34:14.833Z,8.58
2023-03-29T07:35:14.831Z,8.81
2023-03-29T07:36:14.854Z,8.90
2023-03-29T07:37:14.803Z,8.81
2023-03-29T07:38:14.790Z,8.78
2023-03-29T07:39:14.772Z,8.76
2023-03-29T07:40:14.768Z,8.78
2023-03-29T07:41:14.758Z,8.86
2023-03-29T07:42:14.784Z,9.02
2023-03-29T07:43:14.756Z,9.15
2023-03-29T07:44:14.730Z,9.24
2023-03-29T07:45:14.725Z,9.45
2023-03-29T07:46:14.711Z,9.58
2023-03-29T07:47:14.697Z,9.32
2023-03-29T07:48:14.799Z,9.16
2023-03-29T07:49:14.673Z,9.23
2023-03-29T07:50:14.656Z,9.34
2023-03-29T07:51:14.642Z,9.46
2023-03-29T07:52:14.663Z,9.57
2023-03-29T07:53:14.632Z,9.67
2023-03-29T07:54:14.614Z,9.63
2023-03-29T07:55:14.609Z,9.39
2023-03-29T07:56:14.600Z,9.20
2023-03-29T07:57:14.673Z,9.18
2023-03-29T07:58:14.588Z,9.10
2023-03-29T07:59:14.556Z,9.25
2023-03-29T08:00:14.574Z,9.38
2023-03-29T08:01:17.086Z,9.46
2023-03-29T08:02:14.538Z,9.61
2023-03-29T08:03:14.630Z,9.85
2023-03-29T08:04:14.556Z,10.04
2023-03-29T08:05:15.395Z,10.12
2023-03-29T08:06:14.481Z,10.17
2023-03-29T08:07:16.438Z,10.25
2023-03-29T08:08:14.474Z,10.14
2023-03-29T08:09:14.455Z,10.14
2023-03-29T08:10:14.456Z,10.14
2023-03-29T08:11:15.212Z,10.01
2023-03-29T08:13:44.450Z,10.19
2023-03-29T08:14:40.403Z,10.21
2023-03-29T08:15:40.377Z,10.28
2023-03-29T08:16:40.392Z,10.22
2023-03-29T08:17:40.365Z,10.26
2023-03-29T08:18:40.359Z,10.07
2023-03-29T08:19:40.337Z,10.01
2023-03-29T08:20:41.335Z,9.79
2023-03-29T08:21:40.328Z,9.61
2023-03-29T08:22:40.318Z,9.70
2023-03-29T08:23:40.294Z,9.86
2023-03-29T08:24:40.286Z,9.89
2023-03-29T08:25:40.281Z,10.00
2023-03-29T08:26:40.276Z,10.19
2023-03-29T08:27:40.572Z,10.06
2023-03-29T08:36:21.238Z,9.73
2023-03-29T08:36:54.174Z,9.68
2023-03-29T08:37:54.124Z,9.79
2023-03-29T08:40:20.348Z,9.61
2023-03-29T08:41:20.061Z,9.89
2023-03-29T08:42:20.058Z,9.78
2023-03-29T08:43:20.346Z,9.88
2023-03-29T08:44:20.061Z,9.86
2023-03-29T08:45:20.013Z,10.04
2023-03-29T08:46:20.026Z,10.14
2023-03-29T08:47:19.998Z,10.25
2023-03-29T08:48:20.073Z,10.52
2023-03-29T09:16:37.233Z,10.60
2023-03-29T09:17:37.235Z,10.78
2023-03-29T09:18:37.175Z,10.96
2023-03-29T09:19:37.198Z,10.98
2023-03-29T09:20:37.162Z,11.07
2023-03-29T09:21:37.163Z,11.35
2023-03-29T09:22:37.144Z,11.50
2023-03-29T09:23:37.123Z,11.50
2023-03-29T09:24:37.111Z,11.74
2023-03-29T09:25:50.854Z,11.54
2023-03-29T09:26:38.090Z,11.17
2023-03-29T09:27:37.088Z,10.84
2023-03-29T09:28:37.068Z,10.74
2023-03-29T09:29:37.056Z,10.70
2023-03-29T09:30:37.055Z,10.81
2023-03-29T09:31:37.072Z,10.84
2023-03-29T09:32:37.094Z,10.86
2023-03-29T09:33:37.023Z,10.95
2023-03-29T09:34:37.012Z,11.03
2023-03-29T09:35:37.040Z,10.91
2023-03-29T09:36:37.003Z,10.77
2023-03-29T09:37:36.989Z,10.74
2023-03-29T09:38:36.970Z,10.96
2023-03-29T09:39:36.959Z,10.95
2023-03-29T09:40:36.946Z,11.13
2023-03-29T09:41:36.931Z,11.39
2023-03-29T09:42:36.934Z,11.50
2023-03-29T09:43:36.918Z,11.71
2023-03-29T09:44:36.899Z,11.71
2023-03-29T09:45:36.914Z,11.59
2023-03-29T09:46:36.884Z,11.50
2023-03-29T09:47:36.898Z,11.53
2023-03-29T09:48:36.865Z,11.70
2023-03-29T09:49:36.847Z,11.50
2023-03-29T09:50:36.861Z,11.44
2023-03-29T09:51:36.829Z,11.56
2023-03-29T09:52:36.842Z,11.64
2023-03-29T09:53:36.805Z,11.82
2023-03-29T09:54:36.821Z,11.93
2023-03-29T09:55:36.786Z,11.96
2023-03-29T09:56:36.780Z,11.96
2023-03-29T09:57:36.787Z,11.94
2023-03-29T09:58:36.761Z,11.75
2023-03-29T09:59:36.750Z,11.67
2023-03-29T10:00:36.740Z,11.54
2023-03-29T10:01:36.753Z,11.28
2023-03-29T10:02:36.770Z,11.21
2023-03-29T10:03:36.708Z,11.06
2023-03-29T10:04:36.812Z,10.84
2023-03-29T10:05:36.707Z,10.91
2023-03-29T10:06:36.684Z,10.83
2023-03-29T10:07:36.682Z,10.96
2023-03-29T10:08:36.661Z,11.03
2023-03-29T10:09:36.644Z,11.17
2023-03-29T10:10:36.636Z,11.43
2023-03-29T10:11:36.621Z,11.56
2023-03-29T10:12:36.626Z,11.82
2023-03-29T10:13:36.616Z,12.12
2023-03-29T10:14:36.596Z,12.24
2023-03-29T10:15:36.583Z,12.49
2023-03-29T10:16:36.601Z,12.41
2023-03-29T10:17:36.575Z,12.05
2023-03-29T10:18:36.563Z,12.13
2023-03-29T10:19:36.541Z,12.16
2023-03-29T10:20:36.573Z,12.02
2023-03-29T10:21:36.524Z,11.71
2023-03-29T10:22:36.521Z,11.56
2023-03-29T10:23:36.518Z,11.41
2023-03-29T10:24:36.496Z,11.50
2023-03-29T10:25:36.479Z,11.65
2023-03-29T10:26:36.478Z,11.78
2023-03-29T10:27:36.461Z,11.97
2023-03-29T10:28:36.482Z,11.90
2023-03-29T10:29:36.438Z,11.94
2023-03-29T10:30:36.438Z,12.04
2023-03-29T10:31:36.472Z,12.12
2023-03-29T10:32:36.454Z,12.27
2023-03-29T10:33:36.421Z,12.39
2023-03-29T10:34:36.396Z,12.51
2023-03-29T10:35:36.425Z,12.33
2023-03-29T10:36:36.375Z,12.30
2023-03-29T10:37:36.365Z,12.34
2023-03-29T10:38:36.366Z,12.46
2023-03-29T10:39:36.336Z,12.48
2023-03-29T10:40:36.379Z,12.56
2023-03-29T10:41:36.320Z,12.51
2023-03-29T10:42:36.308Z,12.46
2023-03-29T10:43:36.308Z,12.30
2023-03-29T10:44:36.290Z,12.06
2023-03-29T10:45:36.274Z,11.78
2023-03-29T10:46:36.337Z,11.87
2023-03-29T10:47:36.298Z,11.83
2023-03-29T10:48:36.260Z,11.80
2023-03-29T10:49:36.235Z,11.80
2023-03-29T10:50:36.221Z,11.77
2023-03-29T10:51:36.213Z,11.83
2023-03-29T10:52:36.206Z,11.93
2023-03-29T10:53:36.199Z,12.05
2023-03-29T10:54:36.185Z,12.06
2023-03-29T10:55:36.470Z,12.12
2023-03-29T10:56:57.178Z,12.20
2023-03-29T10:57:36.200Z,12.41
2023-03-29T10:58:36.158Z,12.45
2023-03-29T10:59:36.128Z,12.34
2023-03-29T11:00:36.118Z,12.26
2023-03-29T11:01:36.158Z,12.16
2023-03-29T11:02:36.176Z,12.04
2023-03-29T11:03:36.204Z,12.08
2023-03-29T11:04:36.293Z,12.13
2023-03-29T11:05:36.066Z,12.11
2023-03-29T11:06:36.053Z,12.21
2023-03-29T11:07:36.064Z,12.11
2023-03-29T11:08:36.141Z,12.05
2023-03-29T11:09:36.027Z,12.13
2023-03-29T11:10:36.012Z,12.20
2023-03-29T11:11:36.006Z,12.15
2023-03-29T11:12:35.989Z,12.30
2023-03-29T11:13:35.993Z,12.46
2023-03-29T11:14:35.976Z,12.46
2023-03-29T11:15:36.009Z,12.31
2023-03-29T11:16:35.955Z,12.33
2023-03-29T11:17:35.982Z,12.59
2023-03-29T11:18:35.938Z,12.33
2023-03-29T11:19:35.921Z,12.27
2023-03-29T11:20:35.902Z,12.37
2023-03-29T11:21:35.909Z,12.54
2023-03-29T11:22:35.895Z,12.59
2023-03-29T11:23:35.916Z,12.57
2023-03-29T11:24:35.871Z,12.69
2023-03-29T11:25:35.867Z,12.67
2023-03-29T11:26:35.846Z,12.77
2023-03-29T11:27:35.858Z,12.74
2023-03-29T11:28:35.839Z,12.56
2023-03-29T11:29:35.821Z,12.66
2023-03-29T11:30:35.800Z,12.85
2023-03-29T11:31:38.353Z,13.32
2023-03-29T11:32:35.801Z,13.58
2023-03-29T11:33:35.784Z,13.52
2023-03-29T11:34:36.793Z,13.65
2023-03-29T11:35:35.801Z,13.83
2023-03-29T11:36:35.739Z,13.83
2023-03-29T11:37:35.737Z,13.81
2023-03-29T11:38:35.735Z,13.77
2023-03-29T11:39:35.721Z,13.77
2023-03-29T11:40:35.710Z,13.81
2023-03-29T11:41:35.689Z,13.74
2023-03-29T11:42:35.687Z,13.51
2023-03-29T11:43:35.684Z,13.54
2023-03-29T11:44:35.667Z,13.71
2023-03-29T11:45:35.644Z,13.94
2023-03-29T11:46:36.776Z,14.07
2023-03-29T11:47:36.801Z,13.95
2023-03-29T11:48:36.761Z,13.74
2023-03-29T11:49:36.764Z,13.70
2023-03-29T11:50:36.925Z,13.67
2023-03-29T11:51:37.726Z,13.38
2023-03-29T11:52:36.700Z,13.32
2023-03-29T11:53:36.726Z,13.27
2023-03-29T11:54:36.698Z,13.11
2023-03-29T11:55:36.679Z,13.17
2023-03-29T11:56:36.675Z,13.25
2023-03-29T11:57:36.667Z,13.21
2023-03-29T11:58:38.855Z,13.18
2023-03-29T11:59:37.654Z,13.17
2023-03-29T12:00:36.627Z,13.06
2023-03-29T12:01:36.656Z,12.93
2023-03-29T12:02:36.747Z,13.00
2023-03-29T12:03:36.643Z,13.00
2023-03-29T12:04:37.591Z,13.18
2023-03-29T12:05:36.588Z,13.07
2023-03-29T12:06:36.565Z,13.00
2023-03-29T12:07:36.557Z,13.00
2023-03-29T12:08:36.538Z,13.00
2023-03-29T12:09:36.539Z,12.97
2023-03-29T12:10:36.545Z,12.96
2023-03-29T12:11:36.515Z,13.03
2023-03-29T12:12:36.513Z,13.04
2023-03-29T12:13:36.499Z,13.18
2023-03-29T12:14:36.506Z,13.40
2023-03-29T12:15:36.505Z,13.43
2023-03-29T12:16:36.532Z,13.36
2023-03-29T12:17:36.487Z,13.49
2023-03-29T12:18:36.469Z,13.54
2023-03-29T12:19:40.281Z,13.61
2023-03-29T12:20:38.537Z,13.62
2023-03-29T12:21:36.444Z,13.71
2023-03-29T12:22:36.416Z,13.84
2023-03-29T12:23:36.409Z,13.96
2023-03-29T12:24:36.411Z,14.24
2023-03-29T12:25:36.409Z,14.34
2023-03-29T12:26:36.373Z,14.38
2023-03-29T12:27:36.355Z,14.21
2023-03-29T12:28:36.366Z,14.01
2023-03-29T12:29:36.344Z,13.83
2023-03-29T12:30:36.337Z,13.63
2023-03-29T12:31:36.368Z,13.69
2023-03-29T12:32:36.373Z,13.74
2023-03-29T12:33:36.294Z,13.73
2023-03-29T12:34:36.316Z,13.73
2023-03-29T12:35:36.312Z,13.94
2023-03-29T12:36:36.273Z,13.87
2023-03-29T12:37:36.287Z,13.84
2023-03-29T12:38:36.255Z,14.01
2023-03-29T15:00:30.630Z,13.51
2023-03-29T15:01:29.588Z,13.52
2023-03-29T15:02:29.597Z,13.55
2023-03-29T15:03:29.579Z,13.62
2023-03-29T15:04:29.464Z,13.54
2023-03-29T15:05:29.454Z,13.43
2023-03-29T15:06:29.447Z,13.47
2023-03-29T15:07:29.452Z,13.61
2023-03-29T15:08:29.434Z,13.54
2023-03-29T15:09:29.405Z,13.59
2023-03-29T15:10:29.411Z,13.58
2023-03-29T15:11:29.389Z,13.55
2023-03-29T15:12:29.389Z,13.76
2023-03-29T15:13:29.365Z,13.76
2023-03-29T15:14:29.365Z,13.58
2023-03-29T15:15:29.374Z,13.71
2023-03-29T15:16:29.465Z,13.76
2023-03-29T15:17:36.320Z,13.70
2023-03-29T15:18:30.364Z,13.65
2023-03-29T15:19:29.305Z,13.76
2023-03-29T15:20:29.297Z,13.73
2023-03-29T15:21:29.278Z,13.79
2023-03-29T15:22:29.282Z,13.81
2023-03-29T15:23:29.257Z,13.79
2023-03-29T15:24:29.249Z,13.89
2023-03-29T15:25:29.245Z,13.76
2023-03-29T15:26:29.230Z,13.81
2023-03-29T15:27:29.889Z,13.76
2023-03-29T15:28:29.288Z,13.80
2023-03-29T15:29:29.201Z,13.96
2023-03-29T15:30:29.204Z,14.02
2023-03-29T15:31:29.240Z,14.07
2023-03-29T15:32:29.207Z,13.96
2023-03-29T15:33:29.241Z,13.96
2023-03-29T15:34:29.146Z,13.95
2023-03-29T15:35:29.138Z,13.99
2023-03-29T15:36:29.127Z,13.83
2023-03-29T15:37:29.123Z,13.94
2023-03-29T15:38:40.462Z,13.87
2023-03-29T15:39:30.097Z,13.83
2023-03-29T15:40:29.118Z,13.69
2023-03-29T15:41:29.075Z,13.69
2023-03-29T15:42:29.078Z,13.70
2023-03-29T15:43:29.056Z,13.87
2023-03-29T15:44:29.057Z,13.83
2023-03-29T15:45:29.026Z,13.79
2023-03-29T15:46:29.050Z,13.73
2023-03-29T15:47:29.064Z,13.70
2023-03-29T15:48:29.003Z,13.71
2023-03-29T15:49:28.991Z,13.76
2023-03-29T15:50:28.988Z,13.63
2023-03-29T15:51:29.011Z,13.71
2023-03-29T15:52:28.986Z,13.69
2023-03-29T15:53:28.965Z,13.71
2023-03-29T15:54:28.940Z,13.62
2023-03-29T15:55:28.928Z,13.59
2023-03-29T15:56:28.926Z,13.69
2023-03-29T15:57:29.008Z,13.63
2023-03-29T15:58:28.911Z,13.58
2023-03-29T15:59:28.882Z,13.71
2023-03-29T16:00:28.979Z,13.54
2023-03-29T16:01:28.922Z,13.55
2023-03-29T16:02:28.974Z,13.51
2023-03-29T16:03:28.854Z,13.67
2023-03-29T16:04:28.835Z,13.58
2023-03-29T16:05:28.833Z,13.65
2023-03-29T16:06:28.820Z,13.67
2023-03-29T16:07:28.799Z,13.59
2023-03-29T16:08:28.796Z,13.55